Chart 1
 

(A maximum of 50 rows are displayed here. Use "Export Data" to see all rows in the date range.)
Date Collected Temp WindChill
(Celcius)
WindSpeed
(km/hr)
Gust
(km/hr)
Wind Direction
(degrees)
2021-09-25 23:00 8.3 4.4 7 18 195
2021-09-25 22:00 8.3 5.6 5 15 192
2021-09-25 21:00 8.1 5.3 5 15 198
2021-09-25 20:00 8.0 3.0 8 18 198
2021-09-25 19:00 8.3 3.9 7 18 205
2021-09-25 18:00 8.5 3.7 7 17 201
2021-09-25 17:00 8.8 5.2 6 15 212
2021-09-25 16:00 9.1 5.2 7 15 213
2021-09-25 15:00 9.6 5.7 7 15 214
2021-09-25 14:00 10.1 4.3 9 21 219
2021-09-25 13:00 11.1 6.6 8 17 216
2021-09-25 12:00 13.1 10.6 6 15 11
2021-09-25 11:00 12.9 12.7 2 5 71
2021-09-25 10:00 12.8 12.5 2 5 78
2021-09-25 09:00 12.5 11.4 4 8 43
2021-09-25 08:00 12.2 11.9 3 6 49
2021-09-25 07:00 12.4 11.8 3 8 25
2021-09-25 06:00 13.8 12.3 4 13 357
2021-09-25 05:00 13.3 10.7 6 15 341
2021-09-25 04:00 13.3 11.2 5 16 345
2021-09-25 03:00 13.6 10.2 7 18 338
2021-09-25 02:00 13.8 11.4 5 16 342
2021-09-25 01:00 13.3 11.0 5 12 14
2021-09-25 00:00 12.7 11.7 3 8 11
2021-09-24 23:00 12.0 11.8 3 11 36
2021-09-24 22:00 11.0 9.0 4 11 357
2021-09-24 21:00 10.0 9.7 2 8 52
2021-09-24 20:00 10.2 10.0 3 6 55
2021-09-24 19:00 11.0 10.5 3 7 41
2021-09-24 18:00 11.6 11.0 3 6 37
2021-09-24 17:00 12.9 11.7 4 11 19
2021-09-24 16:00 14.1 12.2 5 12 355
2021-09-24 15:00 14.4 12.4 5 14 35
2021-09-24 14:00 14.2 12.2 5 14 14
2021-09-24 13:00 14.3 12.7 5 11 20
2021-09-24 12:00 14.0 12.1 5 12 2
2021-09-24 11:00 12.5 11.1 4 8 34
2021-09-24 10:00 8.9 7.7 4 8 52
2021-09-24 09:00 7.6 5.9 4 8 58
2021-09-24 08:00 5.3 3.7 4 8 45
2021-09-24 07:00 5.1 4.8 2 5 55
2021-09-24 06:00 5.3 5.4 2 5 31
2021-09-24 05:00 7.0 7.0 1 3 214
2021-09-24 04:00 8.4 7.9 3 8 188
2021-09-24 03:00 9.1 6.9 5 13 204
2021-09-24 02:00 9.0 4.5 7 16 206
2021-09-24 01:00 8.9 5.4 6 15 201
2021-09-24 00:00 9.2 3.1 10 23 209
2021-09-23 23:00 8.4 6.7 4 10 197
2021-09-23 22:00 7.5 5.8 4 13 187